createdAt,value
2023-05-11T00:01:59.448Z,7.70
2023-05-11T00:04:26.661Z,6.57
2023-05-11T00:06:54.856Z,5.25
2023-05-11T00:09:21.800Z,5.18
2023-05-11T00:11:48.645Z,5.40
2023-05-11T00:14:15.689Z,7.65
2023-05-11T00:16:42.701Z,7.50
2023-05-11T00:19:09.687Z,6.20
2023-05-11T00:21:36.543Z,7.10
2023-05-11T00:24:03.512Z,6.47
2023-05-11T00:26:30.333Z,8.15
2023-05-11T00:28:57.242Z,9.35
2023-05-11T00:31:24.264Z,5.20
2023-05-11T00:33:51.238Z,5.25
2023-05-11T00:36:18.105Z,7.55
2023-05-11T00:38:45.046Z,10.15
2023-05-11T00:41:11.902Z,7.10
2023-05-11T00:43:38.896Z,6.95
2023-05-11T00:46:05.728Z,7.35
2023-05-11T00:48:32.638Z,7.35
2023-05-11T00:50:59.873Z,7.50
2023-05-11T00:53:27.029Z,7.50
2023-05-11T00:55:54.240Z,9.25
2023-05-11T00:58:21.213Z,7.93
2023-05-11T01:00:48.190Z,6.78
2023-05-11T01:03:15.404Z,11.88
2023-05-11T01:06:11.024Z,7.57
2023-05-11T01:08:51.099Z,6.80
2023-05-11T01:11:23.985Z,6.35
2023-05-11T01:14:04.703Z,7.30
2023-05-11T01:16:32.615Z,7.75
2023-05-11T01:19:02.197Z,8.10
2023-05-11T01:21:33.375Z,10.80
2023-05-11T01:24:09.683Z,7.30
2023-05-11T01:27:01.859Z,7.38
2023-05-11T01:29:40.897Z,9.65
2023-05-11T01:32:15.504Z,7.38
2023-05-11T01:34:43.658Z,8.05
2023-05-11T01:37:16.731Z,9.75
2023-05-11T01:39:49.582Z,8.55
2023-05-11T01:42:16.574Z,9.35
2023-05-11T01:44:44.674Z,10.18
2023-05-11T01:47:12.020Z,9.27
2023-05-11T01:49:39.016Z,8.73
2023-05-11T01:52:07.642Z,7.43
2023-05-11T01:54:34.801Z,9.07
2023-05-11T01:57:02.053Z,9.07
2023-05-11T01:59:29.174Z,8.57
2023-05-11T02:01:56.223Z,13.18
2023-05-11T02:04:23.050Z,8.57
2023-05-11T02:06:49.963Z,7.50
2023-05-11T02:09:17.500Z,12.15
2023-05-11T02:11:45.501Z,10.35
2023-05-11T02:14:15.953Z,8.70
2023-05-11T02:16:42.875Z,11.25
2023-05-11T02:19:09.804Z,10.55
2023-05-11T02:21:36.732Z,8.77
2023-05-11T02:24:04.130Z,10.90
2023-05-11T02:26:31.105Z,8.48
2023-05-11T02:28:57.918Z,10.95
2023-05-11T02:31:27.888Z,11.13
2023-05-11T02:33:56.942Z,11.15
2023-05-11T02:36:24.236Z,11.88
2023-05-11T02:38:55.032Z,10.35
2023-05-11T02:41:26.172Z,9.60
2023-05-11T02:43:54.338Z,11.68
2023-05-11T02:46:26.442Z,10.45
2023-05-11T02:48:55.244Z,12.48
2023-05-11T02:51:26.615Z,11.00
2023-05-11T02:53:54.143Z,11.63
2023-05-11T02:56:22.161Z,11.68
2023-05-11T02:58:50.161Z,11.13
2023-05-11T03:01:21.212Z,13.27
2023-05-11T03:03:48.498Z,11.32
2023-05-11T03:06:15.632Z,14.55
2023-05-11T03:08:42.703Z,12.95
2023-05-11T03:11:11.063Z,15.05
2023-05-11T03:13:38.795Z,10.20
2023-05-11T03:16:06.417Z,12.77
2023-05-11T03:18:34.259Z,11.82
2023-05-11T03:21:01.273Z,10.85
2023-05-11T03:23:28.626Z,10.88
2023-05-11T03:25:56.171Z,11.75
2023-05-11T03:28:24.253Z,9.23
2023-05-11T03:31:04.743Z,11.23
2023-05-11T03:33:32.749Z,12.32
2023-05-11T03:36:01.006Z,8.77
2023-05-11T03:38:29.301Z,11.98
2023-05-11T03:40:57.173Z,11.93
2023-05-11T03:43:27.410Z,18.25
2023-05-11T03:45:55.690Z,15.05
2023-05-11T03:48:23.099Z,14.48
2023-05-11T03:50:51.271Z,17.92
2023-05-11T03:53:18.159Z,14.07
2023-05-11T03:55:45.011Z,14.15
2023-05-11T03:58:11.909Z,17.73
2023-05-11T04:00:42.182Z,12.02
2023-05-11T04:03:09.569Z,13.13
2023-05-11T04:05:38.327Z,11.27
2023-05-11T04:08:08.375Z,15.95
2023-05-11T04:10:35.238Z,11.30
2023-05-11T04:13:02.033Z,10.85
2023-05-11T04:15:29.920Z,12.90
2023-05-11T04:17:56.813Z,14.32
2023-05-11T04:20:23.658Z,14.52
2023-05-11T04:22:50.618Z,12.20
2023-05-11T04:25:17.739Z,10.35
2023-05-11T04:27:45.275Z,15.52
2023-05-11T04:30:12.502Z,12.00
2023-05-11T04:32:39.629Z,12.82
2023-05-11T04:35:06.648Z,12.05
2023-05-11T04:37:36.884Z,12.93
2023-05-11T04:40:07.472Z,15.73
2023-05-11T04:42:39.550Z,16.48
2023-05-11T04:45:10.181Z,13.93
2023-05-11T04:47:37.579Z,14.77
2023-05-11T04:50:06.106Z,12.55
2023-05-11T04:52:35.083Z,12.48
2023-05-11T04:55:02.623Z,16.50
2023-05-11T04:57:29.727Z,14.23
2023-05-11T04:59:57.027Z,17.15
2023-05-11T05:02:24.013Z,17.33
2023-05-11T05:04:50.952Z,13.15
2023-05-11T05:07:17.865Z,14.98
2023-05-11T05:09:45.684Z,20.08
2023-05-11T05:12:14.845Z,12.40
2023-05-11T05:14:41.706Z,12.88
2023-05-11T05:17:08.646Z,17.42
2023-05-11T05:19:35.971Z,13.48
2023-05-11T05:22:03.138Z,16.75
2023-05-11T05:24:31.978Z,15.18
2023-05-11T05:26:58.949Z,14.60
2023-05-11T05:29:26.642Z,15.38
2023-05-11T05:31:53.736Z,13.38
2023-05-11T05:34:21.123Z,14.73
2023-05-11T05:36:48.128Z,13.43
2023-05-11T05:39:14.982Z,15.82
2023-05-11T05:41:42.791Z,18.40
2023-05-11T05:44:10.600Z,17.65
2023-05-11T05:46:38.458Z,18.70
2023-05-11T05:49:05.805Z,14.40
2023-05-11T05:51:33.469Z,15.52
2023-05-11T05:54:00.377Z,14.07
2023-05-11T05:56:27.255Z,16.58
2023-05-11T05:58:54.294Z,15.90
2023-05-11T06:01:22.194Z,17.60
2023-05-11T06:03:52.098Z,13.98
2023-05-11T06:06:19.381Z,14.70
2023-05-11T06:08:46.519Z,19.23
2023-05-11T06:11:13.421Z,16.55
2023-05-11T06:13:40.314Z,18.50
2023-05-11T06:16:07.194Z,16.70
2023-05-11T06:18:35.001Z,15.75
2023-05-11T06:21:04.903Z,19.77
2023-05-11T06:23:32.815Z,13.30
2023-05-11T06:25:59.866Z,15.23
2023-05-11T06:28:30.010Z,17.00
2023-05-11T06:31:00.538Z,19.55
2023-05-11T06:33:30.980Z,18.00
2023-05-11T06:35:58.667Z,16.58
2023-05-11T06:38:28.664Z,17.80
2023-05-11T06:40:56.539Z,17.02
2023-05-11T06:43:23.489Z,16.35
2023-05-11T06:45:52.869Z,20.67
2023-05-11T06:48:23.475Z,17.58
2023-05-11T06:50:50.413Z,17.90
2023-05-11T06:53:18.036Z,23.10
2023-05-11T06:55:45.070Z,18.45
2023-05-11T06:58:12.062Z,15.05
2023-05-11T07:00:39.372Z,17.23
2023-05-11T07:03:06.596Z,18.02
2023-05-11T07:05:33.670Z,17.65
2023-05-11T07:08:00.603Z,17.17
2023-05-11T07:10:27.391Z,15.05
2023-05-11T07:12:54.345Z,15.95
2023-05-11T07:15:21.245Z,18.73
2023-05-11T07:17:48.244Z,17.95
2023-05-11T07:20:15.226Z,22.17
2023-05-11T07:22:42.158Z,16.23
2023-05-11T07:25:12.173Z,16.83
2023-05-11T07:27:39.237Z,16.33
2023-05-11T07:30:08.288Z,20.85
2023-05-11T07:32:35.313Z,17.70
2023-05-11T07:35:02.249Z,18.98
2023-05-11T07:37:29.134Z,16.85
2023-05-11T07:39:55.975Z,17.02
2023-05-11T07:42:23.094Z,15.85
2023-05-11T07:44:50.007Z,19.67
2023-05-11T07:47:18.989Z,16.17
2023-05-11T07:49:47.407Z,17.63
2023-05-11T07:52:14.566Z,17.40
2023-05-11T07:54:41.565Z,17.50
2023-05-11T07:57:08.588Z,16.33
2023-05-11T07:59:36.067Z,18.70
2023-05-11T08:02:04.401Z,16.15
2023-05-11T08:04:31.585Z,17.92
2023-05-11T08:06:58.660Z,16.30
2023-05-11T08:09:25.633Z,17.88
2023-05-11T08:11:53.334Z,13.55
2023-05-11T08:14:21.298Z,18.85
2023-05-11T08:16:49.601Z,15.93
2023-05-11T08:19:16.705Z,13.80
2023-05-11T08:21:44.334Z,19.40
2023-05-11T08:24:11.269Z,15.32
2023-05-11T08:26:38.143Z,13.65
2023-05-11T08:29:05.112Z,15.38
2023-05-11T08:31:32.049Z,13.38
2023-05-11T08:33:59.175Z,13.52
2023-05-11T08:36:26.223Z,13.15
2023-05-11T08:38:57.075Z,12.88
2023-05-11T08:41:25.982Z,11.10
2023-05-11T08:43:52.814Z,13.15
2023-05-11T08:46:22.172Z,12.20
2023-05-11T08:48:49.414Z,11.00
2023-05-11T08:51:16.365Z,10.70
2023-05-11T08:53:43.222Z,12.90
2023-05-11T08:56:10.126Z,14.80
2023-05-11T08:58:38.039Z,11.45
2023-05-11T09:01:06.359Z,11.30
2023-05-11T09:03:34.714Z,12.85
2023-05-11T09:06:01.534Z,13.73
2023-05-11T09:08:28.401Z,10.65
2023-05-11T09:10:55.311Z,10.65
2023-05-11T09:13:24.392Z,11.35
2023-05-11T09:15:51.977Z,13.57
2023-05-11T09:18:18.964Z,13.25
2023-05-11T09:20:45.936Z,12.45
2023-05-11T09:23:19.108Z,13.20
2023-05-11T09:25:45.970Z,13.43
2023-05-11T09:28:15.837Z,10.98
2023-05-11T09:30:43.940Z,10.90
2023-05-11T09:33:11.765Z,10.27
2023-05-11T09:35:38.621Z,14.65
2023-05-11T09:38:12.260Z,11.75
2023-05-11T09:40:49.753Z,10.85
2023-05-11T09:43:23.772Z,10.52
2023-05-11T09:45:52.617Z,10.90
2023-05-11T09:48:19.565Z,13.20
2023-05-11T09:50:46.819Z,11.50
2023-05-11T09:53:13.758Z,10.18
2023-05-11T09:55:52.404Z,11.32
2023-05-11T09:58:19.368Z,12.98
2023-05-11T10:00:52.934Z,12.13
2023-05-11T10:03:20.328Z,17.33
2023-05-11T10:05:58.138Z,12.43
2023-05-11T10:08:31.817Z,16.23
2023-05-11T10:10:58.704Z,13.88
2023-05-11T10:13:26.479Z,10.95
2023-05-11T10:15:53.860Z,13.07
2023-05-11T10:18:21.221Z,14.25
2023-05-11T10:20:48.144Z,11.70
2023-05-11T10:23:16.522Z,13.63
2023-05-11T10:25:43.491Z,11.30
2023-05-11T10:28:10.595Z,12.25
2023-05-11T10:30:37.461Z,13.95
2023-05-11T10:33:04.642Z,10.52
2023-05-11T10:35:31.553Z,10.15
2023-05-11T10:37:58.448Z,11.45
2023-05-11T10:40:25.354Z,10.75
2023-05-11T10:43:15.779Z,14.50
2023-05-11T10:45:57.392Z,9.85
2023-05-11T10:48:57.912Z,10.70
2023-05-11T10:51:55.597Z,9.25
2023-05-11T10:54:31.620Z,14.85
2023-05-11T10:57:11.489Z,11.80
2023-05-11T10:59:44.457Z,8.57
2023-05-11T11:02:11.465Z,10.25
2023-05-11T11:04:48.928Z,7.40
2023-05-11T11:07:19.681Z,10.13
2023-05-11T11:09:57.514Z,7.60
2023-05-11T11:12:26.985Z,8.15
2023-05-11T11:14:55.827Z,7.53
2023-05-11T11:17:25.033Z,8.77
2023-05-11T11:19:51.945Z,8.60
2023-05-11T11:22:37.148Z,7.50
2023-05-11T11:25:05.711Z,6.47
2023-05-11T11:27:41.813Z,8.63
2023-05-11T11:30:22.419Z,7.95
2023-05-11T11:33:16.616Z,6.10
2023-05-11T11:35:43.911Z,7.00
2023-05-11T11:38:11.315Z,6.88
2023-05-11T11:40:50.636Z,5.82
2023-05-11T11:43:19.897Z,5.10
2023-05-11T11:45:59.857Z,10.40
2023-05-11T11:48:36.798Z,5.78
2023-05-11T11:51:04.642Z,7.45
2023-05-11T11:53:46.960Z,8.68
2023-05-11T11:58:44.479Z,7.63
2023-05-11T12:01:26.905Z,5.97
2023-05-11T12:04:06.056Z,5.93
2023-05-11T12:06:40.161Z,7.70
2023-05-11T12:09:07.751Z,8.77
2023-05-11T12:11:34.777Z,8.75
2023-05-11T12:14:01.906Z,7.78
2023-05-11T12:16:28.875Z,6.43
2023-05-11T12:19:00.748Z,6.97
2023-05-11T12:21:29.521Z,8.30
2023-05-11T12:23:57.058Z,8.05
2023-05-11T12:26:24.813Z,8.02
2023-05-11T12:28:52.050Z,6.25
2023-05-11T12:31:19.105Z,9.60
2023-05-11T12:33:47.053Z,6.05
2023-05-11T12:36:15.405Z,6.78
2023-05-11T12:38:49.049Z,6.10
2023-05-11T12:41:22.984Z,7.13
2023-05-11T12:43:53.506Z,6.05
2023-05-11T12:46:20.927Z,7.40
2023-05-11T12:48:48.062Z,6.93
2023-05-11T12:51:34.927Z,8.68
2023-05-11T12:54:01.711Z,5.57
2023-05-11T12:56:28.580Z,10.32
2023-05-11T12:58:55.484Z,6.22
2023-05-11T13:01:26.257Z,5.10
2023-05-11T13:03:53.344Z,7.70
2023-05-11T13:06:20.648Z,6.40
2023-05-11T13:08:47.729Z,5.63
2023-05-11T13:11:22.859Z,6.63
2023-05-11T13:13:53.349Z,5.55
2023-05-11T13:16:27.673Z,6.55
2023-05-11T13:18:58.554Z,6.35
2023-05-11T13:21:25.613Z,6.80
2023-05-11T13:23:54.416Z,6.13
2023-05-11T13:26:30.675Z,6.35
2023-05-11T13:29:09.512Z,6.65
2023-05-11T13:31:48.436Z,6.80
2023-05-11T13:34:15.342Z,7.60
2023-05-11T13:36:42.340Z,6.90
2023-05-11T13:39:09.232Z,6.10
2023-05-11T13:41:36.549Z,5.88
2023-05-11T13:44:03.498Z,6.13
2023-05-11T13:46:30.505Z,7.70
2023-05-11T13:48:58.264Z,5.70
2023-05-11T13:51:25.182Z,7.78
2023-05-11T13:53:52.077Z,5.82
2023-05-11T13:56:19.660Z,5.90
2023-05-11T13:58:46.562Z,5.88
2023-05-11T14:01:13.502Z,6.75
2023-05-11T14:03:40.734Z,6.30
2023-05-11T14:06:07.745Z,8.70
2023-05-11T14:08:34.568Z,5.53
2023-05-11T14:11:01.453Z,5.90
2023-05-11T14:13:28.304Z,6.88
2023-05-11T14:15:55.269Z,7.13
2023-05-11T14:18:24.902Z,7.03
2023-05-11T14:20:51.990Z,6.35
2023-05-11T14:23:18.787Z,6.63
2023-05-11T14:25:45.825Z,7.80
2023-05-11T14:28:12.613Z,6.32
2023-05-11T14:30:39.584Z,9.50
2023-05-11T14:33:06.583Z,6.65
2023-05-11T14:35:33.599Z,5.95
2023-05-11T14:38:01.201Z,7.72
2023-05-11T14:40:28.015Z,6.25
2023-05-11T14:42:54.920Z,6.78
2023-05-11T14:45:22.002Z,5.90
2023-05-11T14:47:49.127Z,7.63
2023-05-11T14:50:16.098Z,8.35
2023-05-11T14:52:43.014Z,6.88
2023-05-11T14:55:09.991Z,5.25
2023-05-11T14:57:36.857Z,6.18
2023-05-11T15:00:04.154Z,5.55
2023-05-11T15:02:31.189Z,5.45
2023-05-11T15:04:58.071Z,7.13
2023-05-11T15:07:28.093Z,5.18
2023-05-11T15:09:55.058Z,5.38
2023-05-11T15:12:21.833Z,5.93
2023-05-11T15:14:48.602Z,5.53
2023-05-11T15:17:15.368Z,6.72
2023-05-11T15:19:42.329Z,6.15
2023-05-11T15:22:09.140Z,6.28
2023-05-11T15:24:35.903Z,6.72
2023-05-11T15:27:02.805Z,8.63
2023-05-11T15:29:29.629Z,6.15
2023-05-11T15:31:56.655Z,6.10
2023-05-11T15:34:23.491Z,6.65
2023-05-11T15:36:50.383Z,4.85
2023-05-11T15:39:17.748Z,5.70
2023-05-11T15:41:44.620Z,4.25
2023-05-11T15:44:11.523Z,3.70
2023-05-11T15:46:38.678Z,6.07
2023-05-11T15:49:06.295Z,3.72
2023-05-11T15:51:33.317Z,5.20
2023-05-11T15:54:00.331Z,4.68
2023-05-11T15:56:27.287Z,4.10
2023-05-11T15:58:54.175Z,4.80
2023-05-11T16:01:21.190Z,5.32
2023-05-11T16:03:48.268Z,6.45
2023-05-11T16:06:15.194Z,5.50
2023-05-11T16:08:42.099Z,3.92
2023-05-11T16:11:08.896Z,4.40
2023-05-11T16:13:35.753Z,5.20
2023-05-11T16:16:02.661Z,4.45
2023-05-11T16:18:29.552Z,5.40
2023-05-11T16:20:56.490Z,5.97
2023-05-11T16:23:25.350Z,4.35
2023-05-11T16:25:52.423Z,4.10
2023-05-11T16:28:19.716Z,2.33
2023-05-11T16:30:46.551Z,5.43
2023-05-11T16:33:13.513Z,3.92
2023-05-11T16:35:40.508Z,4.28
2023-05-11T16:38:07.489Z,4.55
2023-05-11T16:40:34.437Z,3.80
2023-05-11T16:43:01.436Z,4.13
2023-05-11T16:45:30.877Z,5.80
2023-05-11T16:47:58.061Z,5.50
2023-05-11T16:50:24.982Z,6.85
2023-05-11T16:52:51.834Z,8.40
2023-05-11T16:55:20.083Z,4.40
2023-05-11T16:57:47.328Z,5.40
2023-05-11T17:00:14.585Z,4.55
2023-05-11T17:02:41.703Z,3.38
2023-05-11T17:05:10.504Z,3.60
2023-05-11T17:07:37.383Z,3.75
2023-05-11T17:10:04.841Z,3.92
2023-05-11T17:12:32.059Z,3.92
2023-05-11T17:14:58.933Z,3.40
2023-05-11T17:17:25.828Z,4.68
2023-05-11T17:19:52.768Z,3.95
2023-05-11T17:22:20.095Z,4.68
2023-05-11T17:24:47.109Z,4.43
2023-05-11T17:27:13.969Z,4.57
2023-05-11T17:29:43.548Z,4.80
2023-05-11T17:32:10.615Z,4.65
2023-05-11T17:34:37.734Z,4.30
2023-05-11T17:37:04.811Z,6.22
2023-05-11T17:39:32.064Z,4.05
2023-05-11T17:41:58.988Z,5.07
2023-05-11T17:44:25.906Z,4.85
2023-05-11T17:46:52.702Z,4.15
2023-05-11T17:49:19.775Z,3.95
2023-05-11T17:51:47.271Z,4.07
2023-05-11T17:54:14.299Z,5.68
2023-05-11T17:56:41.295Z,4.53
2023-05-11T17:59:08.165Z,4.53
2023-05-11T18:01:35.017Z,4.55
2023-05-11T18:04:02.721Z,4.57
2023-05-11T18:06:29.932Z,5.72
2023-05-11T18:08:57.622Z,5.15
2023-05-11T18:11:24.434Z,4.55
2023-05-11T18:13:51.417Z,5.35
2023-05-11T18:16:18.294Z,6.93
2023-05-11T18:18:45.642Z,6.47
2023-05-11T18:21:12.833Z,7.03
2023-05-11T18:23:39.825Z,6.75
2023-05-11T18:26:06.793Z,6.75
2023-05-11T18:28:33.700Z,7.38
2023-05-11T18:31:00.626Z,6.90
2023-05-11T18:33:27.551Z,7.95
2023-05-11T18:35:54.376Z,8.90
2023-05-11T18:38:21.223Z,9.02
2023-05-11T18:40:48.107Z,7.13
2023-05-11T18:43:14.995Z,9.30
2023-05-11T18:45:41.885Z,8.98
2023-05-11T18:48:08.943Z,7.78
2023-05-11T18:50:35.786Z,7.93
2023-05-11T18:53:02.749Z,7.63
2023-05-11T18:55:33.217Z,9.98
2023-05-11T18:58:05.333Z,9.05
2023-05-11T19:00:36.918Z,9.90
2023-05-11T19:03:04.198Z,11.52
2023-05-11T19:05:31.115Z,8.63
2023-05-11T19:07:57.932Z,9.02
2023-05-11T19:10:24.788Z,9.23
2023-05-11T19:12:51.728Z,8.25
2023-05-11T19:15:18.734Z,9.52
2023-05-11T19:17:45.639Z,9.30
2023-05-11T19:20:12.771Z,8.45
2023-05-11T19:22:39.759Z,9.90
2023-05-11T19:25:07.665Z,9.02
2023-05-11T19:27:34.574Z,10.02
2023-05-11T19:30:01.343Z,9.57
2023-05-11T19:32:28.242Z,8.80
2023-05-11T19:34:55.063Z,9.73
2023-05-11T19:37:22.077Z,9.65
2023-05-11T19:39:49.231Z,7.60
2023-05-11T19:42:17.998Z,7.65
2023-05-11T19:44:50.551Z,7.70
2023-05-11T19:47:19.117Z,6.50
2023-05-11T19:49:46.113Z,8.07
2023-05-11T19:52:13.373Z,7.07
2023-05-11T19:54:40.251Z,7.05
2023-05-11T19:57:07.021Z,6.25
2023-05-11T19:59:33.824Z,8.40
2023-05-11T20:02:01.242Z,7.03
2023-05-11T20:04:28.464Z,7.25
2023-05-11T20:06:55.947Z,6.72
2023-05-11T20:09:23.236Z,7.68
2023-05-11T20:11:50.192Z,9.35
2023-05-11T20:14:17.210Z,8.93
2023-05-11T20:16:44.185Z,8.25
2023-05-11T20:19:11.298Z,10.30
2023-05-11T20:21:38.211Z,8.35
2023-05-11T20:24:05.279Z,9.20
2023-05-11T20:26:32.152Z,8.65
2023-05-11T20:28:58.993Z,7.38
2023-05-11T20:31:26.871Z,7.80
2023-05-11T20:36:23.599Z,7.68
2023-05-11T20:38:53.493Z,6.82
2023-05-11T20:41:20.590Z,7.22
2023-05-11T20:43:47.580Z,8.82
2023-05-11T20:46:15.727Z,8.15
2023-05-11T20:48:45.617Z,6.45
2023-05-11T20:53:41.755Z,7.28
2023-05-11T20:56:12.569Z,7.50
2023-05-11T20:58:39.447Z,7.40
2023-05-11T21:01:06.566Z,8.65
2023-05-11T21:03:33.544Z,7.40
2023-05-11T21:06:00.459Z,8.70
2023-05-11T21:08:27.413Z,8.55
2023-05-11T21:10:54.286Z,9.15
2023-05-11T21:13:21.098Z,8.10
2023-05-11T21:15:47.952Z,8.77
2023-05-11T21:18:14.834Z,8.30
2023-05-11T21:20:41.890Z,9.10
2023-05-11T21:23:08.820Z,8.43
2023-05-11T21:25:35.716Z,8.77
2023-05-11T21:28:03.462Z,9.60
2023-05-11T21:30:30.314Z,10.40
2023-05-11T21:32:57.232Z,11.90
2023-05-11T21:35:24.266Z,10.80
2023-05-11T21:37:51.161Z,9.52
2023-05-11T21:40:18.515Z,9.15
2023-05-11T21:42:45.614Z,7.93
2023-05-11T21:45:12.695Z,7.35
2023-05-11T21:47:39.746Z,7.22
2023-05-11T21:50:08.651Z,7.80
2023-05-11T21:52:36.752Z,8.50
2023-05-11T21:55:03.993Z,9.25
2023-05-11T21:57:30.836Z,7.72
2023-05-11T21:59:57.688Z,8.13
2023-05-11T22:02:24.491Z,11.35
2023-05-11T22:04:51.410Z,9.77
2023-05-11T22:07:18.440Z,12.52
2023-05-11T22:09:45.435Z,8.70
2023-05-11T22:12:12.305Z,9.30
2023-05-11T22:14:39.225Z,8.88
2023-05-11T22:17:06.333Z,9.40
2023-05-11T22:19:33.568Z,8.63
2023-05-11T22:22:00.457Z,8.68
2023-05-11T22:24:27.554Z,7.68
2023-05-11T22:26:54.671Z,7.90
2023-05-11T22:29:21.989Z,8.63
2023-05-11T22:31:51.565Z,7.15
2023-05-11T22:34:20.345Z,7.88
2023-05-11T22:36:47.492Z,7.45
2023-05-11T22:39:14.427Z,8.52
2023-05-11T22:41:41.509Z,8.45
2023-05-11T22:44:08.647Z,7.63
2023-05-11T22:46:35.492Z,9.20
2023-05-11T22:49:02.591Z,8.25
2023-05-11T22:51:29.498Z,6.75
2023-05-11T22:53:56.388Z,9.23
2023-05-11T22:56:23.273Z,10.02
2023-05-11T22:58:50.292Z,8.75
2023-05-11T23:01:17.181Z,8.95
2023-05-11T23:03:44.072Z,8.98
2023-05-11T23:06:11.591Z,8.75
2023-05-11T23:08:39.346Z,9.23
2023-05-11T23:11:07.554Z,7.85
2023-05-11T23:13:34.927Z,9.30
2023-05-11T23:16:03.831Z,8.48
2023-05-11T23:18:31.475Z,8.65
2023-05-11T23:20:59.195Z,8.63
2023-05-11T23:23:26.315Z,9.02
2023-05-11T23:25:53.392Z,9.15
2023-05-11T23:28:20.410Z,9.52
2023-05-11T23:30:47.373Z,7.93
2023-05-11T23:33:14.705Z,9.68
2023-05-11T23:35:41.799Z,8.55
2023-05-11T23:38:08.736Z,8.15
2023-05-11T23:40:36.302Z,9.73
2023-05-11T23:43:03.254Z,8.25
2023-05-11T23:45:30.168Z,9.02
2023-05-11T23:47:57.088Z,8.30
2023-05-11T23:50:23.973Z,8.80
2023-05-11T23:52:50.793Z,10.55
2023-05-11T23:55:18.045Z,7.60
2023-05-11T23:57:45.092Z,8.35
